createdAt,value
2023-05-10T00:01:24.206Z,10.20
2023-05-10T00:03:56.738Z,9.70
2023-05-10T00:06:27.849Z,10.50
2023-05-10T00:09:01.228Z,10.20
2023-05-10T00:11:32.348Z,9.80
2023-05-10T00:14:06.255Z,10.40
2023-05-10T00:16:37.072Z,10.10
2023-05-10T00:19:11.919Z,10.50
2023-05-10T00:21:43.269Z,11.10
2023-05-10T00:24:13.686Z,10.20
2023-05-10T00:26:45.011Z,10.30
2023-05-10T00:29:20.848Z,11.50
2023-05-10T00:31:51.479Z,11.80
2023-05-10T00:34:23.843Z,12.60
2023-05-10T00:36:56.320Z,13.20
2023-05-10T00:39:32.851Z,11.90
2023-05-10T00:42:03.832Z,11.50
2023-05-10T00:44:38.237Z,11.70
2023-05-10T00:47:10.716Z,11.10
2023-05-10T00:49:45.253Z,9.50
2023-05-10T00:52:17.618Z,9.90
2023-05-10T00:54:49.161Z,10.20
2023-05-10T00:57:26.834Z,9.80
2023-05-10T00:59:59.324Z,9.50
2023-05-10T01:02:30.073Z,9.70
2023-05-10T01:05:01.850Z,10.30
2023-05-10T01:07:34.879Z,11.00
2023-05-10T01:10:10.128Z,11.00
2023-05-10T01:12:47.281Z,9.80
2023-05-10T01:15:19.734Z,10.50
2023-05-10T01:17:50.733Z,10.50
2023-05-10T01:20:21.010Z,9.10
2023-05-10T01:26:25.812Z,9.50
2023-05-10T01:29:28.311Z,10.50
2023-05-10T01:32:01.799Z,8.50
2023-05-10T01:34:59.581Z,8.70
2023-05-10T01:38:03.476Z,8.50
2023-05-10T01:41:08.615Z,6.70
2023-05-10T01:44:21.403Z,7.20
2023-05-10T01:47:06.607Z,6.70
2023-05-10T01:49:55.143Z,6.60
2023-05-10T01:52:46.240Z,6.20
2023-05-10T01:55:21.774Z,6.00
2023-05-10T01:58:04.815Z,5.90
2023-05-10T02:00:36.799Z,6.10
2023-05-10T02:03:12.942Z,5.70
2023-05-10T02:05:46.325Z,5.90
2023-05-10T02:08:22.570Z,5.50
2023-05-10T02:10:58.130Z,5.70
2023-05-10T02:13:31.521Z,5.80
2023-05-10T02:16:07.119Z,5.70
2023-05-10T02:18:39.895Z,5.20
2023-05-10T02:21:18.776Z,5.70
2023-05-10T02:23:56.882Z,5.60
2023-05-10T02:26:30.791Z,5.30
2023-05-10T02:29:05.731Z,5.50
2023-05-10T02:31:40.179Z,5.70
2023-05-10T02:34:13.859Z,5.50
2023-05-10T02:36:45.727Z,5.70
2023-05-10T02:39:20.837Z,5.60
2023-05-10T02:41:53.723Z,5.00
2023-05-10T02:44:25.402Z,5.90
2023-05-10T02:46:57.342Z,5.80
2023-05-10T02:49:27.882Z,5.60
2023-05-10T02:52:07.308Z,4.80
2023-05-10T02:54:48.802Z,5.50
2023-05-10T02:57:35.947Z,4.40
2023-05-10T03:00:08.301Z,5.00
2023-05-10T03:02:39.447Z,5.50
2023-05-10T03:05:10.982Z,6.70
2023-05-10T03:07:47.791Z,5.60
2023-05-10T03:12:59.375Z,5.70
2023-05-10T03:15:44.010Z,5.60
2023-05-10T03:18:24.821Z,5.70
2023-05-10T03:21:06.995Z,5.70
2023-05-10T03:23:55.447Z,5.90
2023-05-10T03:26:29.636Z,6.40
2023-05-10T03:29:16.708Z,6.60
2023-05-10T03:31:49.074Z,7.80
2023-05-10T03:34:26.442Z,11.40
2023-05-10T03:36:59.213Z,9.60
2023-05-10T03:39:29.748Z,9.70
2023-05-10T03:44:32.644Z,8.90
2023-05-10T03:47:03.082Z,7.80
2023-05-10T03:49:34.116Z,7.30
2023-05-10T03:52:07.609Z,6.10
2023-05-10T03:54:39.354Z,7.20
2023-05-10T03:57:15.320Z,6.20
2023-05-10T03:59:46.988Z,6.60
2023-05-10T04:02:19.498Z,6.30
2023-05-10T04:05:04.033Z,5.30
2023-05-10T04:07:34.141Z,6.30
2023-05-10T04:10:07.214Z,4.90
2023-05-10T04:12:37.327Z,5.90
2023-05-10T04:15:08.161Z,5.70
2023-05-10T04:17:39.178Z,5.90
2023-05-10T04:20:12.313Z,6.00
2023-05-10T04:22:42.828Z,6.20
2023-05-10T04:25:13.876Z,6.00
2023-05-10T04:27:44.280Z,6.60
2023-05-10T04:30:14.964Z,6.30
2023-05-10T04:32:45.267Z,6.90
2023-05-10T04:35:16.293Z,6.40
2023-05-10T04:37:46.509Z,5.80
2023-05-10T04:40:16.988Z,5.40
2023-05-10T04:42:47.861Z,6.30
2023-05-10T04:45:18.419Z,5.60
2023-05-10T04:47:48.537Z,5.30
2023-05-10T04:50:18.965Z,5.90
2023-05-10T04:52:48.960Z,5.30
2023-05-10T04:55:19.059Z,6.10
2023-05-10T04:57:49.084Z,5.50
2023-05-10T05:00:19.530Z,5.80
2023-05-10T05:02:49.528Z,5.30
2023-05-10T05:05:19.982Z,5.30
2023-05-10T05:07:50.293Z,5.10
2023-05-10T05:10:20.743Z,6.40
2023-05-10T05:12:50.945Z,5.10
2023-05-10T05:15:21.579Z,4.60
2023-05-10T05:17:51.367Z,4.90
2023-05-10T05:20:21.881Z,4.90
2023-05-10T05:22:52.216Z,4.70
2023-05-10T05:25:22.848Z,5.60
2023-05-10T05:27:55.834Z,4.80
2023-05-10T05:30:26.064Z,4.80
2023-05-10T05:32:56.337Z,4.90
2023-05-10T05:35:26.813Z,5.00
2023-05-10T05:37:57.444Z,4.30
2023-05-10T05:40:27.653Z,4.90
2023-05-10T05:42:58.083Z,4.80
2023-05-10T05:45:30.681Z,4.40
2023-05-10T05:48:02.273Z,4.30
2023-05-10T05:50:34.811Z,5.10
2023-05-10T05:53:05.315Z,6.20
2023-05-10T05:55:35.650Z,4.70
2023-05-10T05:58:06.491Z,4.80
2023-05-10T06:00:36.705Z,4.50
2023-05-10T06:03:08.992Z,5.40
2023-05-10T06:05:39.906Z,4.60
2023-05-10T06:08:10.027Z,4.30
2023-05-10T06:10:40.159Z,4.90
2023-05-10T06:13:11.411Z,4.80
2023-05-10T06:15:41.625Z,4.70
2023-05-10T06:18:11.754Z,5.30
2023-05-10T06:20:45.126Z,4.60
2023-05-10T06:23:15.265Z,4.80
2023-05-10T06:25:45.566Z,4.80
2023-05-10T06:28:15.894Z,4.90
2023-05-10T06:30:48.667Z,5.00
2023-05-10T06:33:18.782Z,4.90
2023-05-10T06:35:48.800Z,5.80
2023-05-10T06:38:18.928Z,4.60
2023-05-10T06:40:49.055Z,3.80
2023-05-10T06:43:26.340Z,4.40
2023-05-10T06:46:02.008Z,4.40
2023-05-10T06:48:33.027Z,4.80
2023-05-10T06:51:03.145Z,4.90
2023-05-10T06:53:33.254Z,4.90
2023-05-10T06:56:04.751Z,4.30
2023-05-10T07:01:07.941Z,4.00
2023-05-10T07:03:38.655Z,4.30
2023-05-10T07:06:21.684Z,4.40
2023-05-10T07:09:00.498Z,5.00
2023-05-10T07:11:30.514Z,4.70
2023-05-10T07:14:01.044Z,4.90
2023-05-10T07:16:31.094Z,4.20
2023-05-10T07:19:01.276Z,4.70
2023-05-10T07:21:32.673Z,4.70
2023-05-10T07:24:03.153Z,3.80
2023-05-10T07:26:33.666Z,3.90
2023-05-10T07:29:04.000Z,4.20
2023-05-10T07:31:34.447Z,4.00
2023-05-10T07:34:04.763Z,4.70
2023-05-10T07:36:35.281Z,4.30
2023-05-10T07:39:06.423Z,3.10
2023-05-10T07:41:40.129Z,3.70
2023-05-10T07:44:10.548Z,3.30
2023-05-10T07:46:41.369Z,3.40
2023-05-10T07:49:11.831Z,3.30
2023-05-10T07:51:42.536Z,3.10
2023-05-10T07:54:14.403Z,3.60
2023-05-10T07:56:48.822Z,3.10
2023-05-10T07:59:19.367Z,2.80
2023-05-10T08:01:49.573Z,3.00
2023-05-10T08:04:20.158Z,2.90
2023-05-10T08:06:50.554Z,2.70
2023-05-10T08:09:25.359Z,3.20
2023-05-10T08:11:55.979Z,2.70
2023-05-10T08:14:26.926Z,3.00
2023-05-10T08:16:58.141Z,2.70
2023-05-10T08:19:29.496Z,3.60
2023-05-10T08:22:04.370Z,2.70
2023-05-10T08:24:41.243Z,2.50
2023-05-10T08:27:11.861Z,2.40
2023-05-10T08:29:50.141Z,2.50
2023-05-10T08:32:21.113Z,2.80
2023-05-10T08:34:57.776Z,2.40
2023-05-10T08:37:32.498Z,2.30
2023-05-10T08:40:02.842Z,2.30
2023-05-10T08:42:42.286Z,2.50
2023-05-10T08:45:13.284Z,4.50
2023-05-10T08:47:44.219Z,2.00
2023-05-10T08:50:16.832Z,2.30
2023-05-10T08:52:52.053Z,2.70
2023-05-10T08:55:25.658Z,2.10
2023-05-10T08:57:56.680Z,4.20
2023-05-10T09:00:30.487Z,3.30
2023-05-10T09:03:01.903Z,2.50
2023-05-10T09:05:32.691Z,2.40
2023-05-10T09:08:02.715Z,2.50
2023-05-10T09:10:34.087Z,2.10
2023-05-10T09:13:05.140Z,2.30
2023-05-10T09:15:36.428Z,2.60
2023-05-10T09:18:06.889Z,2.50
2023-05-10T09:20:37.187Z,2.60
2023-05-10T09:23:12.630Z,2.20
2023-05-10T09:25:45.587Z,2.10
2023-05-10T09:28:15.660Z,1.90
2023-05-10T09:30:55.008Z,2.50
2023-05-10T09:33:28.050Z,1.90
2023-05-10T09:36:09.994Z,2.40
2023-05-10T09:38:53.900Z,1.90
2023-05-10T09:41:25.189Z,2.40
2023-05-10T09:43:58.316Z,2.10
2023-05-10T09:46:33.002Z,1.70
2023-05-10T09:49:03.204Z,1.80
2023-05-10T09:51:35.629Z,2.30
2023-05-10T09:54:18.284Z,2.20
2023-05-10T09:56:48.401Z,2.60
2023-05-10T09:59:20.875Z,2.50
2023-05-10T10:01:57.979Z,2.20
2023-05-10T10:04:31.259Z,2.20
2023-05-10T10:07:05.482Z,2.30
2023-05-10T10:09:37.181Z,2.00
2023-05-10T10:12:07.704Z,2.60
2023-05-10T10:14:43.788Z,2.60
2023-05-10T10:17:14.681Z,2.60
2023-05-10T10:19:47.203Z,2.30
2023-05-10T10:22:21.388Z,2.20
2023-05-10T10:24:52.967Z,2.10
2023-05-10T10:28:10.452Z,2.20
2023-05-10T10:30:47.318Z,2.70
2023-05-10T10:33:55.296Z,2.50
2023-05-10T10:36:28.334Z,2.50
2023-05-10T10:39:09.089Z,2.10
2023-05-10T10:41:57.770Z,2.80
2023-05-10T10:44:32.051Z,2.70
2023-05-10T10:47:30.279Z,2.40
2023-05-10T10:50:03.633Z,3.10
2023-05-10T10:52:38.323Z,2.90
2023-05-10T10:55:25.003Z,2.50
2023-05-10T10:58:07.355Z,2.70
2023-05-10T11:00:39.257Z,2.60
2023-05-10T11:03:20.127Z,2.70
2023-05-10T11:05:53.281Z,3.00
2023-05-10T11:08:36.934Z,2.50
2023-05-10T11:11:10.617Z,3.10
2023-05-10T11:13:49.211Z,4.70
2023-05-10T11:16:43.194Z,2.50
2023-05-10T11:22:07.009Z,2.00
2023-05-10T11:24:37.571Z,2.30
2023-05-10T11:27:09.067Z,2.30
2023-05-10T11:29:39.990Z,2.00
2023-05-10T11:32:13.414Z,2.20
2023-05-10T11:34:49.105Z,2.60
2023-05-10T11:37:23.301Z,2.30
2023-05-10T11:39:56.931Z,2.50
2023-05-10T11:42:31.882Z,3.00
2023-05-10T11:45:07.496Z,2.40
2023-05-10T11:47:47.586Z,2.40
2023-05-10T11:50:25.277Z,2.50
2023-05-10T11:52:58.217Z,2.30
2023-05-10T11:55:31.774Z,2.70
2023-05-10T11:58:05.602Z,2.70
2023-05-10T12:00:36.495Z,2.80
2023-05-10T12:03:09.301Z,2.70
2023-05-10T12:05:41.567Z,2.80
2023-05-10T12:08:15.747Z,2.60
2023-05-10T12:10:46.472Z,3.10
2023-05-10T12:13:25.388Z,3.10
2023-05-10T12:16:02.034Z,2.70
2023-05-10T12:18:42.112Z,2.50
2023-05-10T12:21:16.553Z,2.30
2023-05-10T12:23:52.357Z,3.00
2023-05-10T12:26:30.885Z,2.20
2023-05-10T12:29:20.820Z,2.80
2023-05-10T12:32:02.570Z,2.60
2023-05-10T12:34:36.553Z,2.30
2023-05-10T12:37:07.543Z,2.50
2023-05-10T12:40:00.184Z,2.70
2023-05-10T12:42:36.865Z,2.70
2023-05-10T12:45:15.401Z,2.40
2023-05-10T12:47:45.722Z,2.80
2023-05-10T12:50:16.557Z,2.90
2023-05-10T12:52:47.317Z,2.70
2023-05-10T12:55:17.509Z,2.50
2023-05-10T12:57:47.995Z,2.40
2023-05-10T13:00:19.368Z,2.80
2023-05-10T13:02:49.663Z,2.60
2023-05-10T13:05:19.928Z,2.60
2023-05-10T13:07:51.345Z,2.20
2023-05-10T13:10:25.367Z,3.20
2023-05-10T13:13:00.288Z,2.80
2023-05-10T13:15:32.427Z,2.70
2023-05-10T13:18:05.969Z,2.40
2023-05-10T13:20:35.872Z,2.20
2023-05-10T13:23:06.114Z,2.60
2023-05-10T13:25:36.247Z,2.10
2023-05-10T13:28:06.366Z,2.50
2023-05-10T13:30:36.627Z,2.50
2023-05-10T13:33:07.085Z,2.30
2023-05-10T13:35:37.754Z,2.90
2023-05-10T13:38:09.347Z,2.30
2023-05-10T13:40:39.588Z,2.30
2023-05-10T13:43:09.315Z,2.70
2023-05-10T13:45:39.036Z,2.00
2023-05-10T13:48:08.973Z,2.40
2023-05-10T13:50:39.824Z,2.40
2023-05-10T13:53:09.719Z,2.40
2023-05-10T13:55:40.221Z,2.30
2023-05-10T13:58:12.264Z,2.00
2023-05-10T14:00:43.254Z,2.10
2023-05-10T14:03:16.557Z,2.60
2023-05-10T14:05:49.999Z,2.30
2023-05-10T14:08:24.042Z,3.00
2023-05-10T14:11:16.269Z,2.00
2023-05-10T14:13:47.736Z,2.20
2023-05-10T14:16:18.323Z,2.50
2023-05-10T14:18:49.149Z,2.50
2023-05-10T14:21:19.249Z,2.50
2023-05-10T14:23:49.273Z,2.40
2023-05-10T14:26:22.052Z,2.10
2023-05-10T14:28:52.913Z,2.60
2023-05-10T14:31:24.550Z,2.30
2023-05-10T14:36:30.127Z,2.20
2023-05-10T14:39:04.881Z,2.10
2023-05-10T14:41:35.168Z,2.10
2023-05-10T14:44:05.429Z,2.30
2023-05-10T14:46:36.406Z,2.50
2023-05-10T14:49:06.323Z,2.00
2023-05-10T14:51:37.851Z,2.80
2023-05-10T14:56:38.762Z,2.70
2023-05-10T14:59:10.178Z,2.80
2023-05-10T15:01:43.299Z,2.60
2023-05-10T15:04:14.998Z,2.40
2023-05-10T15:06:45.806Z,3.20
2023-05-10T15:09:17.865Z,2.20
2023-05-10T15:11:48.293Z,2.50
2023-05-10T15:14:18.840Z,2.00
2023-05-10T15:16:49.493Z,2.60
2023-05-10T15:19:19.779Z,2.20
2023-05-10T15:21:57.488Z,2.70
2023-05-10T15:24:29.028Z,2.60
2023-05-10T15:27:01.100Z,2.80
2023-05-10T15:29:33.684Z,2.90
2023-05-10T15:32:04.489Z,2.40
2023-05-10T15:34:39.681Z,2.90
2023-05-10T15:37:10.092Z,2.70
2023-05-10T15:39:41.217Z,2.10
2023-05-10T15:42:14.664Z,2.50
2023-05-10T15:44:46.110Z,2.80
2023-05-10T15:47:16.845Z,2.20
2023-05-10T15:49:52.967Z,2.30
2023-05-10T15:52:26.375Z,2.80
2023-05-10T15:54:57.217Z,2.70
2023-05-10T15:57:27.764Z,2.80
2023-05-10T16:00:04.280Z,2.40
2023-05-10T16:02:42.911Z,3.50
2023-05-10T16:05:24.535Z,2.30
2023-05-10T16:08:06.903Z,2.60
2023-05-10T16:10:38.826Z,3.30
2023-05-10T16:13:17.794Z,2.50
2023-05-10T16:15:50.374Z,2.50
2023-05-10T16:18:30.321Z,2.50
2023-05-10T16:21:27.731Z,2.50
2023-05-10T16:24:10.880Z,2.90
2023-05-10T16:26:43.139Z,3.00
2023-05-10T16:29:19.601Z,3.80
2023-05-10T16:31:57.131Z,3.80
2023-05-10T16:34:33.401Z,4.30
2023-05-10T16:37:14.541Z,3.70
2023-05-10T16:39:50.363Z,2.80
2023-05-10T16:42:21.476Z,2.40
2023-05-10T16:44:57.276Z,2.90
2023-05-10T16:47:28.197Z,2.70
2023-05-10T16:50:08.371Z,2.90
2023-05-10T16:52:48.439Z,2.40
2023-05-10T16:55:24.741Z,3.30
2023-05-10T16:58:01.316Z,3.40
2023-05-10T17:00:36.831Z,3.60
2023-05-10T17:03:27.001Z,3.60
2023-05-10T17:06:45.460Z,3.10
2023-05-10T17:09:16.273Z,3.20
2023-05-10T17:11:50.487Z,3.20
2023-05-10T17:14:23.086Z,5.00
2023-05-10T17:16:58.205Z,3.70
2023-05-10T17:19:32.079Z,3.30
2023-05-10T17:22:04.545Z,3.70
2023-05-10T17:24:35.567Z,3.40
2023-05-10T17:27:09.341Z,4.20
2023-05-10T17:29:45.028Z,3.70
2023-05-10T17:32:21.166Z,4.10
2023-05-10T17:34:53.547Z,4.50
2023-05-10T17:37:28.380Z,3.60
2023-05-10T17:40:14.570Z,4.30
2023-05-10T17:42:52.725Z,3.80
2023-05-10T17:45:31.054Z,4.00
2023-05-10T17:51:31.276Z,4.10
2023-05-10T17:54:19.882Z,3.70
2023-05-10T17:57:18.122Z,4.10
2023-05-10T17:59:54.080Z,5.00
2023-05-10T18:02:53.648Z,5.00
2023-05-10T18:05:28.353Z,4.20
2023-05-10T18:11:52.357Z,3.70
2023-05-10T18:14:40.646Z,4.10
2023-05-10T18:17:37.220Z,3.90
2023-05-10T18:20:20.425Z,4.90
2023-05-10T18:24:39.508Z,4.20
2023-05-10T18:27:26.701Z,4.50
2023-05-10T18:30:25.626Z,4.30
2023-05-10T19:04:06.569Z,8.70
2023-05-10T19:06:36.858Z,7.80
2023-05-10T19:09:09.437Z,8.80
2023-05-10T19:11:41.362Z,9.60
2023-05-10T19:14:10.348Z,10.00
2023-05-10T19:16:53.095Z,9.00
2023-05-10T19:19:24.686Z,10.40
2023-05-10T19:21:56.205Z,9.50
2023-05-10T19:24:26.982Z,12.20
2023-05-10T19:27:06.529Z,11.40
2023-05-10T19:29:45.281Z,12.00
2023-05-10T19:32:25.781Z,18.70
2023-05-10T19:34:58.285Z,10.40
2023-05-10T19:37:28.731Z,11.30
2023-05-10T19:40:40.716Z,10.70
2023-05-10T19:43:25.154Z,14.50
2023-05-10T19:46:02.988Z,12.20
2023-05-10T19:48:51.765Z,10.50
2023-05-10T19:51:52.258Z,9.50
2023-05-10T19:54:57.744Z,10.00
2023-05-10T19:58:33.660Z,10.60
2023-05-10T20:01:35.768Z,10.00
2023-05-10T20:04:13.451Z,11.50
2023-05-10T20:06:45.725Z,12.70
2023-05-10T20:09:30.658Z,11.50
2023-05-10T20:12:07.725Z,11.70
2023-05-10T20:14:52.443Z,10.40
2023-05-10T20:17:44.697Z,9.50
2023-05-10T20:20:50.093Z,10.30
2023-05-10T20:23:27.936Z,10.00
2023-05-10T20:25:58.044Z,12.80
2023-05-10T20:28:30.539Z,9.90
2023-05-10T20:31:12.618Z,9.80
2023-05-10T20:33:54.701Z,10.90
2023-05-10T20:37:29.145Z,13.70
2023-05-10T20:40:05.904Z,11.60
2023-05-10T20:42:59.600Z,11.90
2023-05-10T20:45:39.720Z,11.10
2023-05-10T20:48:25.296Z,9.00
2023-05-10T20:51:01.647Z,10.00
2023-05-10T20:53:41.196Z,9.20
2023-05-10T20:56:37.319Z,8.60
2023-05-10T20:59:26.274Z,9.40
2023-05-10T21:02:04.471Z,9.40
2023-05-10T21:04:53.333Z,9.10
2023-05-10T21:07:36.355Z,8.70
2023-05-10T21:10:25.273Z,7.50
2023-05-10T21:13:02.048Z,8.00
2023-05-10T21:15:42.718Z,8.10
2023-05-10T21:18:13.703Z,7.70
2023-05-10T21:20:59.536Z,7.10
2023-05-10T21:23:39.587Z,7.30
2023-05-10T21:29:29.191Z,7.50
2023-05-10T21:32:44.185Z,8.10
2023-05-10T21:35:27.250Z,9.00
2023-05-10T21:38:16.317Z,9.00
2023-05-10T21:41:13.598Z,9.30
2023-05-10T21:44:33.031Z,9.90
2023-05-10T21:47:53.606Z,10.70
2023-05-10T21:50:33.008Z,10.00
2023-05-10T21:55:51.572Z,8.40
2023-05-10T21:58:41.024Z,9.20
2023-05-10T22:01:28.527Z,8.40
2023-05-10T22:04:20.519Z,8.50
2023-05-10T22:07:25.737Z,7.20
2023-05-10T22:10:13.205Z,7.00
2023-05-10T22:12:56.619Z,7.30
2023-05-10T22:15:37.859Z,6.50
2023-05-10T22:18:25.145Z,6.80
2023-05-10T22:21:05.952Z,7.20
2023-05-10T22:23:51.024Z,7.20
2023-05-10T22:26:30.142Z,6.30
2023-05-10T22:29:18.727Z,7.00
2023-05-10T22:32:09.131Z,7.00
2023-05-10T22:35:15.854Z,6.30
2023-05-10T22:38:06.257Z,6.60
2023-05-10T22:40:55.977Z,6.40
2023-05-10T22:43:47.421Z,6.60
2023-05-10T22:46:37.686Z,7.20
2023-05-10T22:49:11.872Z,8.30
2023-05-10T22:51:47.103Z,8.40
2023-05-10T22:54:25.312Z,7.40
2023-05-10T22:57:06.060Z,7.40
2023-05-10T23:00:03.442Z,7.10
2023-05-10T23:02:47.947Z,7.20
2023-05-10T23:05:29.077Z,6.90
2023-05-10T23:08:11.786Z,6.70
2023-05-10T23:10:57.258Z,6.50
2023-05-10T23:13:31.262Z,6.50
2023-05-10T23:16:08.700Z,6.50
2023-05-10T23:18:46.868Z,7.60
2023-05-10T23:21:18.841Z,7.60
2023-05-10T23:23:48.205Z,7.90
2023-05-10T23:26:22.178Z,7.90
2023-05-10T23:28:59.205Z,7.90
2023-05-10T23:31:38.469Z,7.20
2023-05-10T23:34:27.910Z,7.70
2023-05-10T23:37:07.925Z,7.50
2023-05-10T23:39:52.499Z,8.50
2023-05-10T23:42:37.305Z,8.00
2023-05-10T23:45:26.799Z,8.30
2023-05-10T23:48:31.912Z,8.20
2023-05-10T23:51:17.862Z,7.80
2023-05-10T23:53:56.622Z,9.70
2023-05-10T23:56:42.101Z,9.20
2023-05-10T23:59:29.408Z,8.90
